sensor_id;sensor_type;location;lat;lon;timestamp;P1;durP1;ratioP1;P2;durP2;ratioP2
44143;SDS011;71749;51.920;4.492;2024-01-10T00:02:13;6.90;;;2.37;;
44143;SDS011;71749;51.920;4.492;2024-01-10T00:04:58;5.70;;;2.37;;
44143;SDS011;71749;51.920;4.492;2024-01-10T00:07:44;6.47;;;2.57;;
44143;SDS011;71749;51.920;4.492;2024-01-10T00:10:29;5.60;;;2.40;;
44143;SDS011;71749;51.920;4.492;2024-01-10T00:13:14;7.23;;;2.93;;
44143;SDS011;71749;51.920;4.492;2024-01-10T00:15:59;7.10;;;2.83;;
44143;SDS011;71749;51.920;4.492;2024-01-10T00:18:45;5.60;;;2.57;;
44143;SDS011;71749;51.920;4.492;2024-01-10T00:21:30;6.20;;;2.20;;
44143;SDS011;71749;51.920;4.492;2024-01-10T00:24:16;5.77;;;2.33;;
44143;SDS011;71749;51.920;4.492;2024-01-10T00:27:01;7.50;;;3.00;;
44143;SDS011;71749;51.920;4.492;2024-01-10T00:29:47;5.67;;;2.57;;
44143;SDS011;71749;51.920;4.492;2024-01-10T00:32:40;5.57;;;2.40;;
44143;SDS011;71749;51.920;4.492;2024-01-10T00:35:25;5.13;;;2.57;;
44143;SDS011;71749;51.920;4.492;2024-01-10T00:38:11;6.23;;;2.70;;
44143;SDS011;71749;51.920;4.492;2024-01-10T00:41:01;6.20;;;3.00;;
44143;SDS011;71749;51.920;4.492;2024-01-10T00:43:47;5.10;;;2.40;;
44143;SDS011;71749;51.920;4.492;2024-01-10T00:46:33;6.77;;;2.57;;
44143;SDS011;71749;51.920;4.492;2024-01-10T00:49:18;6.40;;;2.53;;
44143;SDS011;71749;51.920;4.492;2024-01-10T00:52:03;6.53;;;2.70;;
44143;SDS011;71749;51.920;4.492;2024-01-10T00:54:48;5.50;;;2.50;;
44143;SDS011;71749;51.920;4.492;2024-01-10T00:57:34;5.73;;;2.30;;
44143;SDS011;71749;51.920;4.492;2024-01-10T01:00:19;6.07;;;2.60;;
44143;SDS011;71749;51.920;4.492;2024-01-10T01:03:06;5.40;;;2.67;;
44143;SDS011;71749;51.920;4.492;2024-01-10T01:05:52;6.03;;;2.90;;
44143;SDS011;71749;51.920;4.492;2024-01-10T01:08:38;5.53;;;2.90;;
44143;SDS011;71749;51.920;4.492;2024-01-10T01:11:23;4.90;;;2.40;;
44143;SDS011;71749;51.920;4.492;2024-01-10T01:14:09;6.83;;;2.90;;
44143;SDS011;71749;51.920;4.492;2024-01-10T01:16:54;6.33;;;3.00;;
44143;SDS011;71749;51.920;4.492;2024-01-10T01:19:39;5.53;;;2.60;;
44143;SDS011;71749;51.920;4.492;2024-01-10T01:22:25;5.27;;;2.50;;
44143;SDS011;71749;51.920;4.492;2024-01-10T01:25:10;5.33;;;2.60;;
44143;SDS011;71749;51.920;4.492;2024-01-10T01:27:58;6.57;;;3.00;;
44143;SDS011;71749;51.920;4.492;2024-01-10T01:30:55;5.80;;;3.00;;
44143;SDS011;71749;51.920;4.492;2024-01-10T01:33:43;7.13;;;3.10;;
44143;SDS011;71749;51.920;4.492;2024-01-10T01:36:29;6.57;;;3.10;;
44143;SDS011;71749;51.920;4.492;2024-01-10T01:39:14;5.70;;;2.90;;
44143;SDS011;71749;51.920;4.492;2024-01-10T01:42:00;5.70;;;2.87;;
44143;SDS011;71749;51.920;4.492;2024-01-10T01:44:49;5.93;;;2.80;;
44143;SDS011;71749;51.920;4.492;2024-01-10T01:47:34;7.63;;;2.97;;
44143;SDS011;71749;51.920;4.492;2024-01-10T01:50:20;7.20;;;3.03;;
44143;SDS011;71749;51.920;4.492;2024-01-10T01:53:05;6.83;;;3.23;;
44143;SDS011;71749;51.920;4.492;2024-01-10T01:55:51;6.63;;;2.70;;
44143;SDS011;71749;51.920;4.492;2024-01-10T01:58:37;8.83;;;3.40;;
44143;SDS011;71749;51.920;4.492;2024-01-10T02:01:25;7.80;;;3.30;;
44143;SDS011;71749;51.920;4.492;2024-01-10T02:04:10;8.07;;;3.20;;
44143;SDS011;71749;51.920;4.492;2024-01-10T02:06:56;5.03;;;2.57;;
44143;SDS011;71749;51.920;4.492;2024-01-10T02:09:42;6.17;;;3.03;;
44143;SDS011;71749;51.920;4.492;2024-01-10T02:12:28;6.90;;;3.10;;
44143;SDS011;71749;51.920;4.492;2024-01-10T02:15:13;7.13;;;3.10;;
44143;SDS011;71749;51.920;4.492;2024-01-10T02:17:59;6.00;;;2.93;;
44143;SDS011;71749;51.920;4.492;2024-01-10T02:20:44;8.17;;;3.27;;
44143;SDS011;71749;51.920;4.492;2024-01-10T02:23:30;7.63;;;3.60;;
44143;SDS011;71749;51.920;4.492;2024-01-10T02:26:16;6.33;;;3.10;;
44143;SDS011;71749;51.920;4.492;2024-01-10T02:29:02;6.33;;;3.13;;
44143;SDS011;71749;51.920;4.492;2024-01-10T02:31:48;5.87;;;2.90;;
44143;SDS011;71749;51.920;4.492;2024-01-10T02:34:34;7.80;;;3.27;;
44143;SDS011;71749;51.920;4.492;2024-01-10T02:37:19;6.03;;;2.87;;
44143;SDS011;71749;51.920;4.492;2024-01-10T02:40:05;7.30;;;3.17;;
44143;SDS011;71749;51.920;4.492;2024-01-10T02:42:50;6.73;;;3.27;;
44143;SDS011;71749;51.920;4.492;2024-01-10T02:45:36;7.67;;;3.17;;
44143;SDS011;71749;51.920;4.492;2024-01-10T02:48:21;6.00;;;2.90;;
44143;SDS011;71749;51.920;4.492;2024-01-10T02:51:07;5.57;;;2.80;;
44143;SDS011;71749;51.920;4.492;2024-01-10T02:53:52;7.83;;;2.90;;
44143;SDS011;71749;51.920;4.492;2024-01-10T02:56:38;6.83;;;3.20;;
44143;SDS011;71749;51.920;4.492;2024-01-10T02:59:24;6.80;;;3.50;;
44143;SDS011;71749;51.920;4.492;2024-01-10T03:02:10;7.00;;;2.87;;
44143;SDS011;71749;51.920;4.492;2024-01-10T03:04:55;7.27;;;3.10;;
44143;SDS011;71749;51.920;4.492;2024-01-10T13:05:48;13.43;;;6.13;;
44143;SDS011;71749;51.920;4.492;2024-01-10T13:08:37;10.98;;;6.25;;
44143;SDS011;71749;51.920;4.492;2024-01-10T13:57:09;12.43;;;6.50;;
44143;SDS011;71749;51.920;4.492;2024-01-10T13:59:54;13.13;;;6.43;;
44143;SDS011;71749;51.920;4.492;2024-01-10T14:02:42;11.50;;;5.68;;
44143;SDS011;71749;51.920;4.492;2024-01-10T14:05:27;12.10;;;6.50;;
44143;SDS011;71749;51.920;4.492;2024-01-10T14:08:13;10.82;;;6.13;;
44143;SDS011;71749;51.920;4.492;2024-01-10T14:11:00;13.13;;;5.78;;
44143;SDS011;71749;51.920;4.492;2024-01-10T14:13:46;13.68;;;6.82;;
44143;SDS011;71749;51.920;4.492;2024-01-10T14:16:31;10.23;;;5.43;;
44143;SDS011;71749;51.920;4.492;2024-01-10T14:19:16;13.20;;;6.53;;
44143;SDS011;71749;51.920;4.492;2024-01-10T14:22:02;12.43;;;6.38;;
44143;SDS011;71749;51.920;4.492;2024-01-10T14:24:58;11.68;;;6.07;;
44143;SDS011;71749;51.920;4.492;2024-01-10T14:27:47;34.47;;;8.95;;
44143;SDS011;71749;51.920;4.492;2024-01-10T14:30:32;11.73;;;5.88;;
44143;SDS011;71749;51.920;4.492;2024-01-10T14:33:18;12.05;;;6.20;;
44143;SDS011;71749;51.920;4.492;2024-01-10T14:36:03;12.80;;;6.05;;
44143;SDS011;71749;51.920;4.492;2024-01-10T14:38:49;13.63;;;6.65;;
44143;SDS011;71749;51.920;4.492;2024-01-10T14:41:35;13.20;;;6.63;;
44143;SDS011;71749;51.920;4.492;2024-01-10T14:44:21;13.90;;;7.40;;
44143;SDS011;71749;51.920;4.492;2024-01-10T14:47:06;12.48;;;6.57;;
44143;SDS011;71749;51.920;4.492;2024-01-10T14:49:56;11.70;;;6.40;;
44143;SDS011;71749;51.920;4.492;2024-01-10T14:52:44;11.50;;;5.80;;
44143;SDS011;71749;51.920;4.492;2024-01-10T14:55:30;10.88;;;5.65;;
44143;SDS011;71749;51.920;4.492;2024-01-10T14:58:17;11.63;;;6.70;;
44143;SDS011;71749;51.920;4.492;2024-01-10T15:01:06;12.93;;;6.32;;
44143;SDS011;71749;51.920;4.492;2024-01-10T15:03:53;13.10;;;6.82;;
44143;SDS011;71749;51.920;4.492;2024-01-10T15:06:45;13.30;;;6.78;;
44143;SDS011;71749;51.920;4.492;2024-01-10T15:09:31;12.45;;;6.15;;
44143;SDS011;71749;51.920;4.492;2024-01-10T15:12:17;11.80;;;6.15;;
44143;SDS011;71749;51.920;4.492;2024-01-10T15:15:02;13.18;;;6.93;;
44143;SDS011;71749;51.920;4.492;2024-01-10T16:22:52;15.98;;;7.00;;
44143;SDS011;71749;51.920;4.492;2024-01-10T16:25:37;14.65;;;7.25;;
44143;SDS011;71749;51.920;4.492;2024-01-10T16:28:22;15.48;;;7.30;;
44143;SDS011;71749;51.920;4.492;2024-01-10T16:31:08;13.18;;;6.57;;
44143;SDS011;71749;51.920;4.492;2024-01-10T16:33:54;12.73;;;6.75;;
44143;SDS011;71749;51.920;4.492;2024-01-10T16:36:39;11.02;;;6.38;;
44143;SDS011;71749;51.920;4.492;2024-01-10T16:39:24;13.18;;;7.03;;
44143;SDS011;71749;51.920;4.492;2024-01-10T16:42:10;13.88;;;6.97;;
44143;SDS011;71749;51.920;4.492;2024-01-10T16:44:58;13.25;;;5.97;;
44143;SDS011;71749;51.920;4.492;2024-01-10T16:47:43;12.32;;;7.10;;
44143;SDS011;71749;51.920;4.492;2024-01-10T16:50:29;14.35;;;6.80;;
44143;SDS011;71749;51.920;4.492;2024-01-10T16:53:16;14.15;;;6.65;;
44143;SDS011;71749;51.920;4.492;2024-01-10T16:56:02;11.18;;;6.22;;
44143;SDS011;71749;51.920;4.492;2024-01-10T16:58:48;12.05;;;6.50;;
44143;SDS011;71749;51.920;4.492;2024-01-10T17:01:33;13.88;;;7.13;;
44143;SDS011;71749;51.920;4.492;2024-01-10T17:04:18;14.25;;;6.65;;
44143;SDS011;71749;51.920;4.492;2024-01-10T17:07:05;12.82;;;7.22;;
44143;SDS011;71749;51.920;4.492;2024-01-10T17:09:50;13.80;;;6.78;;
44143;SDS011;71749;51.920;4.492;2024-01-10T17:12:36;14.75;;;7.88;;
44143;SDS011;71749;51.920;4.492;2024-01-10T17:15:21;15.75;;;8.05;;
44143;SDS011;71749;51.920;4.492;2024-01-10T17:18:07;16.83;;;7.65;;
44143;SDS011;71749;51.920;4.492;2024-01-10T17:20:52;15.95;;;8.65;;
44143;SDS011;71749;51.920;4.492;2024-01-10T17:23:37;15.52;;;8.50;;
44143;SDS011;71749;51.920;4.492;2024-01-10T17:26:23;15.07;;;7.47;;
44143;SDS011;71749;51.920;4.492;2024-01-10T17:29:08;15.38;;;7.35;;
44143;SDS011;71749;51.920;4.492;2024-01-10T17:31:54;15.10;;;7.88;;
44143;SDS011;71749;51.920;4.492;2024-01-10T17:34:39;14.48;;;7.68;;
44143;SDS011;71749;51.920;4.492;2024-01-10T17:37:25;13.27;;;7.20;;
44143;SDS011;71749;51.920;4.492;2024-01-10T17:40:11;14.60;;;7.72;;
44143;SDS011;71749;51.920;4.492;2024-01-10T17:42:56;15.15;;;7.55;;
44143;SDS011;71749;51.920;4.492;2024-01-10T17:45:43;16.90;;;8.25;;
44143;SDS011;71749;51.920;4.492;2024-01-10T17:48:30;16.13;;;7.75;;
44143;SDS011;71749;51.920;4.492;2024-01-10T17:51:16;14.35;;;7.32;;
44143;SDS011;71749;51.920;4.492;2024-01-10T17:54:07;15.73;;;7.60;;
44143;SDS011;71749;51.920;4.492;2024-01-10T17:56:52;14.90;;;7.22;;
44143;SDS011;71749;51.920;4.492;2024-01-10T17:59:38;14.85;;;8.07;;
44143;SDS011;71749;51.920;4.492;2024-01-10T18:02:23;15.27;;;7.65;;
44143;SDS011;71749;51.920;4.492;2024-01-10T18:05:09;15.93;;;7.88;;
44143;SDS011;71749;51.920;4.492;2024-01-10T18:07:55;16.45;;;7.30;;
44143;SDS011;71749;51.920;4.492;2024-01-10T18:10:40;14.30;;;7.40;;
44143;SDS011;71749;51.920;4.492;2024-01-10T18:13:25;13.85;;;7.75;;
44143;SDS011;71749;51.920;4.492;2024-01-10T18:16:10;15.00;;;7.88;;
44143;SDS011;71749;51.920;4.492;2024-01-10T18:18:56;14.82;;;7.28;;
44143;SDS011;71749;51.920;4.492;2024-01-10T18:21:42;16.67;;;7.95;;
44143;SDS011;71749;51.920;4.492;2024-01-10T18:24:27;16.10;;;7.85;;
44143;SDS011;71749;51.920;4.492;2024-01-10T18:27:13;15.80;;;7.72;;
44143;SDS011;71749;51.920;4.492;2024-01-10T18:29:58;12.57;;;7.18;;
44143;SDS011;71749;51.920;4.492;2024-01-10T18:32:43;18.95;;;8.13;;
44143;SDS011;71749;51.920;4.492;2024-01-10T18:35:29;15.75;;;7.45;;
44143;SDS011;71749;51.920;4.492;2024-01-10T18:38:14;14.15;;;6.60;;
44143;SDS011;71749;51.920;4.492;2024-01-10T18:41:02;17.23;;;7.30;;
44143;SDS011;71749;51.920;4.492;2024-01-10T18:54:36;15.05;;;7.57;;
44143;SDS011;71749;51.920;4.492;2024-01-10T18:57:24;13.30;;;7.55;;
44143;SDS011;71749;51.920;4.492;2024-01-10T19:00:11;14.70;;;7.22;;
44143;SDS011;71749;51.920;4.492;2024-01-10T19:02:59;14.85;;;7.45;;
44143;SDS011;71749;51.920;4.492;2024-01-10T19:08:27;15.43;;;7.90;;
44143;SDS011;71749;51.920;4.492;2024-01-10T19:11:13;15.60;;;7.63;;
44143;SDS011;71749;51.920;4.492;2024-01-10T19:13:58;15.63;;;7.15;;
44143;SDS011;71749;51.920;4.492;2024-01-10T19:16:44;14.75;;;7.85;;
44143;SDS011;71749;51.920;4.492;2024-01-10T19:19:30;12.90;;;6.63;;
44143;SDS011;71749;51.920;4.492;2024-01-10T19:22:21;15.15;;;7.03;;
44143;SDS011;71749;51.920;4.492;2024-01-10T19:25:07;14.27;;;7.15;;
44143;SDS011;71749;51.920;4.492;2024-01-10T19:30:29;16.70;;;8.52;;
44143;SDS011;71749;51.920;4.492;2024-01-10T19:33:15;15.82;;;7.95;;
44143;SDS011;71749;51.920;4.492;2024-01-10T19:36:00;15.32;;;7.88;;
44143;SDS011;71749;51.920;4.492;2024-01-10T19:38:46;13.38;;;7.22;;
44143;SDS011;71749;51.920;4.492;2024-01-10T19:41:35;18.55;;;8.70;;
44143;SDS011;71749;51.920;4.492;2024-01-10T19:44:25;16.38;;;7.88;;
44143;SDS011;71749;51.920;4.492;2024-01-10T19:47:12;15.10;;;7.70;;
44143;SDS011;71749;51.920;4.492;2024-01-10T19:49:59;18.38;;;7.88;;
44143;SDS011;71749;51.920;4.492;2024-01-10T19:52:47;15.35;;;7.68;;
44143;SDS011;71749;51.920;4.492;2024-01-10T19:58:10;15.65;;;7.53;;
44143;SDS011;71749;51.920;4.492;2024-01-10T20:00:56;15.35;;;7.78;;
44143;SDS011;71749;51.920;4.492;2024-01-10T20:03:43;13.63;;;7.05;;
44143;SDS011;71749;51.920;4.492;2024-01-10T20:06:28;15.32;;;7.40;;
44143;SDS011;71749;51.920;4.492;2024-01-10T20:09:13;13.52;;;7.45;;
44143;SDS011;71749;51.920;4.492;2024-01-10T20:12:01;13.90;;;7.00;;
44143;SDS011;71749;51.920;4.492;2024-01-10T20:14:46;13.60;;;7.28;;
44143;SDS011;71749;51.920;4.492;2024-01-10T20:17:31;12.85;;;7.05;;
44143;SDS011;71749;51.920;4.492;2024-01-10T20:20:17;14.15;;;6.97;;
44143;SDS011;71749;51.920;4.492;2024-01-10T20:23:02;13.73;;;7.43;;
44143;SDS011;71749;51.920;4.492;2024-01-10T20:25:50;16.67;;;8.30;;
44143;SDS011;71749;51.920;4.492;2024-01-10T20:28:36;13.05;;;7.00;;
44143;SDS011;71749;51.920;4.492;2024-01-10T20:31:22;15.98;;;6.93;;
44143;SDS011;71749;51.920;4.492;2024-01-10T20:34:07;14.38;;;6.93;;
44143;SDS011;71749;51.920;4.492;2024-01-10T20:36:52;15.43;;;7.40;;
44143;SDS011;71749;51.920;4.492;2024-01-10T20:39:38;14.77;;;7.10;;
44143;SDS011;71749;51.920;4.492;2024-01-10T20:42:23;14.45;;;7.32;;
44143;SDS011;71749;51.920;4.492;2024-01-10T20:45:12;15.30;;;7.65;;
44143;SDS011;71749;51.920;4.492;2024-01-10T20:48:01;13.57;;;7.57;;
44143;SDS011;71749;51.920;4.492;2024-01-10T20:50:48;15.85;;;8.25;;
44143;SDS011;71749;51.920;4.492;2024-01-10T20:53:33;15.63;;;7.65;;
44143;SDS011;71749;51.920;4.492;2024-01-10T20:56:20;15.80;;;7.68;;
44143;SDS011;71749;51.920;4.492;2024-01-10T21:01:47;13.20;;;7.50;;
44143;SDS011;71749;51.920;4.492;2024-01-10T21:04:32;12.70;;;7.40;;
44143;SDS011;71749;51.920;4.492;2024-01-10T21:07:19;14.23;;;7.18;;
44143;SDS011;71749;51.920;4.492;2024-01-10T21:10:04;14.52;;;8.20;;
44143;SDS011;71749;51.920;4.492;2024-01-10T21:12:50;15.80;;;7.80;;
44143;SDS011;71749;51.920;4.492;2024-01-10T21:15:35;17.98;;;8.73;;
44143;SDS011;71749;51.920;4.492;2024-01-10T21:18:21;14.68;;;7.85;;
44143;SDS011;71749;51.920;4.492;2024-01-10T21:21:06;13.48;;;7.20;;
44143;SDS011;71749;51.920;4.492;2024-01-10T21:45:28;16.23;;;9.02;;
44143;SDS011;71749;51.920;4.492;2024-01-10T21:48:13;18.90;;;8.45;;
44143;SDS011;71749;51.920;4.492;2024-01-10T21:51:00;16.15;;;8.13;;
44143;SDS011;71749;51.920;4.492;2024-01-10T21:53:46;16.73;;;8.00;;
44143;SDS011;71749;51.920;4.492;2024-01-10T21:56:32;14.07;;;8.02;;
44143;SDS011;71749;51.920;4.492;2024-01-10T21:59:18;16.65;;;8.35;;
44143;SDS011;71749;51.920;4.492;2024-01-10T22:02:03;16.50;;;8.02;;
44143;SDS011;71749;51.920;4.492;2024-01-10T22:04:48;14.60;;;7.78;;
44143;SDS011;71749;51.920;4.492;2024-01-10T22:07:34;13.40;;;7.55;;
44143;SDS011;71749;51.920;4.492;2024-01-10T22:10:20;17.23;;;7.35;;
44143;SDS011;71749;51.920;4.492;2024-01-10T22:13:05;13.57;;;6.95;;
44143;SDS011;71749;51.920;4.492;2024-01-10T22:15:51;19.58;;;8.57;;
44143;SDS011;71749;51.920;4.492;2024-01-10T22:18:36;15.32;;;7.97;;
44143;SDS011;71749;51.920;4.492;2024-01-10T22:23:58;13.15;;;7.38;;
44143;SDS011;71749;51.920;4.492;2024-01-10T22:42:50;13.43;;;7.20;;
44143;SDS011;71749;51.920;4.492;2024-01-10T22:45:37;15.10;;;7.32;;
44143;SDS011;71749;51.920;4.492;2024-01-10T22:48:23;12.98;;;7.32;;
44143;SDS011;71749;51.920;4.492;2024-01-10T22:53:51;16.02;;;7.93;;
44143;SDS011;71749;51.920;4.492;2024-01-10T22:59:12;13.83;;;7.83;;
44143;SDS011;71749;51.920;4.492;2024-01-10T23:07:20;16.15;;;8.48;;
44143;SDS011;71749;51.920;4.492;2024-01-10T23:10:06;17.00;;;8.05;;
44143;SDS011;71749;51.920;4.492;2024-01-10T23:12:52;18.75;;;7.82;;
44143;SDS011;71749;51.920;4.492;2024-01-10T23:15:37;16.88;;;8.05;;
